Tuesday, July 17, 2018, 12:19 AM CDT
Back to Local

KDDC, Dodge City Regional Airport

Location: Dodge City, KS, United States Lat: 37.767
Local Time: 12:19 AM CDT ( 5:19 GMT) Lon: -99.967
Time Zone: US/Central Elev: 2595 ft

Show me the last for .
Show Decoded

2018-07-16 23:52 METAR KDDC 170452Z AUTO 13004KT 10SM CLR 23/20 A3010 RMK AO2 SLP161 T02280200 =
2018-07-16 22:52 METAR KDDC 170352Z AUTO 13006KT 10SM CLR 23/19 A3010 RMK AO2 SLP160 T02330194 =
2018-07-16 21:52 METAR KDDC 170252Z AUTO 14010KT 10SM CLR 25/18 A3008 RMK AO2 SLP155 T02500183
                 53012 =
2018-07-16 20:52 METAR KDDC 170152Z AUTO 14010KT 10SM CLR 26/18 A3006 RMK AO2 SLP149 T02560178 =
2018-07-16 19:52 METAR KDDC 170052Z AUTO 14011G19KT 10SM CLR 27/17 A3006 RMK AO2 PK WND
                 14027/0008 WSHFT 0001 LTG DSNT SE SLP149 T02720172 =
2018-07-16 19:21 METAR KDDC 170021Z AUTO 17012G25KT 10SM CLR 28/19 A3005 RMK AO2 PK WND
                 14027/0008 WSHFT 0001 LTG DSNT SE AND S T02830194 =
2018-07-16 18:52 METAR KDDC 162352Z AUTO 10013KT 10SM CLR 31/21 A3004 RMK AO2 LTG DSNT SE AND S
                 SLP140 T03110206 10339 20289 56009 =
2018-07-16 18:32 METAR KDDC 162332Z AUTO 09013KT 10SM CLR 31/21 A3003 RMK AO2 LTG DSNT SE AND S
                 T03110211 =
2018-07-16 18:17 METAR KDDC 162317Z AUTO 06010KT 10SM VCTS FEW070 32/22 A3003 RMK AO2 LTG DSNT S
                 T03170217 =
2018-07-16 17:52 METAR KDDC 162252Z AUTO 06009KT 10SM FEW070 31/21 A3004 RMK AO2 LTG DSNT S AND
                 SW TSE2154B06E21 SLP140 T03060206 =
2018-07-16 17:45 METAR KDDC 162245Z AUTO 06009KT 10SM FEW070 30/21 A3004 RMK AO2 LTG DSNT S AND
                 SW TSE2154B06E21 T03000206 =
2018-07-16 17:27 METAR KDDC 162227Z AUTO 04010KT 10SM VCTS FEW060 29/19 A3005 RMK AO2 LTG DSNT E
                 AND S TSE2154B06E21 T02890194 =
2018-07-16 17:12 METAR KDDC 162212Z AUTO 05015G21KT 10SM TS FEW060 29/21 A3005 RMK AO2 LTG DSNT
                 NE TSE2154B06 T02940211 =
2018-07-16 17:00 METAR KDDC 162200Z AUTO 04015G23KT 10SM VCTS FEW060 31/22 A3005 RMK AO2 LTG DSNT
                 NE-S TSE2154 T03060222 =
2018-07-16 16:52 METAR KDDC 162152Z AUTO 05009KT 10SM TS FEW055 34/20 A3004 RMK AO2 LTG DSNT NE-S
                 TSB39 SLP138 T03390200 =
2018-07-16 16:45 METAR KDDC 162145Z AUTO 13006KT 10SM TS FEW055 34/19 A3005 RMK AO2 TSB39
                 T03390194 =
2018-07-16 16:25 METAR KDDC 162125Z AUTO VRB04KT 10SM VCTS FEW055 33/18 A3006 RMK AO2 T03330183 =
2018-07-16 14:52 METAR KDDC 161952Z AUTO 13008G15KT 10SM FEW046 32/21 A3009 RMK AO2 SLP153
                 T03220206 =
2018-07-16 13:52 METAR KDDC 161852Z AUTO 15008KT 10SM CLR 32/21 A3010 RMK AO2 SLP157 T03220211 $
                 =
2018-07-16 12:52 METAR KDDC 161752Z AUTO 09009KT 10SM CLR 31/21 A3011 RMK AO2 SLP163 T03110211
                 10311 20211 58000 $ =
2018-07-16 11:52 METAR KDDC 161652Z AUTO 15009KT 10SM BKN100 28/20 A3012 RMK AO2 SLP166 T02830200
                 =
2018-07-16 10:52 METAR KDDC 161552Z AUTO 11010KT 10SM BKN100 27/21 A3012 RMK AO2 SLP168 T02670206
                 =
2018-07-16 09:52 METAR KDDC 161452Z AUTO 10012KT 10SM CLR 25/19 A3011 RMK AO2 SLP167 T02500194
                 51008 =
2018-07-16 08:52 METAR KDDC 161352Z AUTO 09012G18KT 10SM CLR 23/19 A3011 RMK AO2 SLP165 T02280189
                 =
2018-07-16 07:52 METAR KDDC 161252Z AUTO 08008KT 10SM CLR 22/19 A3010 RMK AO2 SLP161 T02170189 =
2018-07-16 06:52 METAR KDDC 161152Z AUTO 06008KT 5SM BR CLR 21/19 A3009 RMK AO2 SLP159 T02110194
                 10222 20206 51010 $ =
2018-07-16 05:52 METAR KDDC 161052Z AUTO 05007KT 4SM BR FEW095 21/20 A3008 RMK AO2 SLP152
                 T02110200 $ =
2018-07-16 04:52 METAR KDDC 160952Z AUTO 02007KT 5SM BR CLR 21/20 A3007 RMK AO2 SLP148 T02110200
                 $ =
2018-07-16 03:52 METAR KDDC 160852Z AUTO 00000KT 7SM FEW120 21/19 A3006 RMK AO2 SLP144 T02060194
                 58005 $ =
2018-07-16 02:52 METAR KDDC 160752Z AUTO 00000KT 8SM CLR 22/20 A3008 RMK AO2 SLP149 T02170200 $ =
2018-07-16 01:52 METAR KDDC 160652Z AUTO 01006KT 9SM CLR 22/20 A3008 RMK AO2 SLP150 T02170200 $ =
2018-07-16 00:52 METAR KDDC 160552Z AUTO 02004KT 10SM FEW100 22/20 A3007 RMK AO2 SLP149 T02220200
                 10272 20222 403500211 50007 $ =

Support USWX by starting your Amazon purchase here.